createdAt,value
2023-02-03T00:00:57.296Z,0
2023-02-03T00:01:57.683Z,0
2023-02-03T00:02:57.188Z,0
2023-02-03T00:03:57.212Z,0
2023-02-03T00:04:57.181Z,0
2023-02-03T00:05:57.177Z,0
2023-02-03T00:06:57.171Z,0
2023-02-03T00:07:57.094Z,0
2023-02-03T00:08:57.110Z,0
2023-02-03T00:09:57.066Z,0
2023-02-03T00:10:57.177Z,0
2023-02-03T00:11:56.979Z,0
2023-02-03T00:12:57.082Z,0
2023-02-03T00:13:56.967Z,0
2023-02-03T00:14:56.919Z,0
2023-02-03T00:15:56.967Z,0
2023-02-03T00:16:56.835Z,0
2023-02-03T00:17:56.558Z,0
2023-02-03T00:18:56.774Z,0
2023-02-03T00:19:56.735Z,0
2023-02-03T00:20:56.479Z,0
2023-02-03T00:21:56.691Z,0
2023-02-03T00:22:56.447Z,0
2023-02-03T00:23:56.646Z,0
2023-02-03T00:24:56.590Z,0
2023-02-03T00:25:56.557Z,0
2023-02-03T00:26:56.533Z,0
2023-02-03T00:27:56.802Z,0
2023-02-03T00:28:56.551Z,0
2023-02-03T00:29:56.430Z,0
2023-02-03T00:30:56.541Z,0
2023-02-03T00:31:57.169Z,0
2023-02-03T00:32:56.114Z,0
2023-02-03T00:33:56.351Z,0
2023-02-03T00:34:56.308Z,0
2023-02-03T00:35:56.277Z,0
2023-02-03T00:36:56.258Z,0
2023-02-03T00:37:56.269Z,0
2023-02-03T00:38:56.228Z,0
2023-02-03T00:39:56.159Z,0
2023-02-03T00:40:56.146Z,0
2023-02-03T00:41:56.100Z,0
2023-02-03T00:42:56.063Z,0
2023-02-03T00:43:56.047Z,0
2023-02-03T00:44:56.078Z,0
2023-02-03T00:45:56.347Z,0
2023-02-03T00:46:55.968Z,0
2023-02-03T00:47:55.928Z,0
2023-02-03T00:48:55.904Z,0
2023-02-03T00:49:55.881Z,0
2023-02-03T00:50:55.823Z,0
2023-02-03T00:51:55.812Z,0
2023-02-03T00:52:55.771Z,0
2023-02-03T00:53:55.746Z,0
2023-02-03T00:54:55.725Z,0
2023-02-03T00:55:55.667Z,0
2023-02-03T00:56:55.659Z,0
2023-02-03T00:57:55.654Z,0
2023-02-03T00:58:55.629Z,0
2023-02-03T00:59:55.572Z,0
2023-02-03T01:00:55.949Z,0
2023-02-03T01:01:55.657Z,0
2023-02-03T01:02:55.560Z,0
2023-02-03T01:03:55.458Z,0
2023-02-03T01:04:55.446Z,0
2023-02-03T01:05:55.403Z,0
2023-02-03T01:06:55.367Z,0
2023-02-03T01:07:55.331Z,0
2023-02-03T01:08:55.319Z,0
2023-02-03T01:09:55.283Z,0
2023-02-03T01:10:55.017Z,0
2023-02-03T01:11:55.224Z,0
2023-02-03T01:12:55.200Z,0
2023-02-03T01:13:54.961Z,0
2023-02-03T01:14:55.115Z,0
2023-02-03T01:15:55.095Z,0
2023-02-03T01:16:55.375Z,0
2023-02-03T01:17:55.034Z,0
2023-02-03T01:18:55.062Z,0
2023-02-03T01:19:54.982Z,0
2023-02-03T01:20:54.941Z,0
2023-02-03T01:21:54.961Z,0
2023-02-03T01:22:54.899Z,0
2023-02-03T01:23:54.932Z,0
2023-02-03T01:24:54.865Z,0
2023-02-03T01:25:54.551Z,0
2023-02-03T01:26:54.782Z,0
2023-02-03T01:27:54.956Z,0
2023-02-03T01:28:54.736Z,0
2023-02-03T01:29:54.680Z,0
2023-02-03T01:30:55.183Z,0
2023-02-03T01:31:55.437Z,0
2023-02-03T01:32:54.723Z,0
2023-02-03T01:33:54.578Z,0
2023-02-03T01:34:54.562Z,0
2023-02-03T01:35:54.513Z,0
2023-02-03T01:36:54.476Z,0
2023-02-03T01:37:54.437Z,0
2023-02-03T01:38:54.430Z,0
2023-02-03T01:39:54.502Z,0
2023-02-03T01:40:54.369Z,0
2023-02-03T01:41:54.330Z,0
2023-02-03T01:42:54.327Z,0
2023-02-03T01:43:54.278Z,0
2023-02-03T01:44:54.284Z,0
2023-02-03T01:45:54.349Z,0
2023-02-03T01:46:54.193Z,0
2023-02-03T01:47:54.156Z,0
2023-02-03T01:48:54.193Z,0
2023-02-03T01:49:54.110Z,0
2023-02-03T01:50:54.102Z,0
2023-02-03T01:51:54.048Z,0
2023-02-03T01:52:54.019Z,0
2023-02-03T01:53:54.001Z,0
2023-02-03T01:54:53.955Z,0
2023-02-03T01:55:53.915Z,0
2023-02-03T01:56:53.893Z,0
2023-02-03T01:57:53.857Z,0
2023-02-03T01:58:53.827Z,0
2023-02-03T01:59:53.803Z,0
2023-02-03T02:00:53.778Z,0
2023-02-03T02:01:53.857Z,0
2023-02-03T02:02:54.109Z,0
2023-02-03T02:03:53.677Z,0
2023-02-03T02:04:53.734Z,0
2023-02-03T02:05:53.620Z,0
2023-02-03T02:06:53.677Z,0
2023-02-03T02:07:53.562Z,0
2023-02-03T02:08:53.535Z,0
2023-02-03T02:09:53.522Z,0
2023-02-03T02:10:53.510Z,0
2023-02-03T02:11:53.439Z,0
2023-02-03T02:12:53.440Z,0
2023-02-03T02:13:53.474Z,0
2023-02-03T02:14:53.352Z,0
2023-02-03T02:15:53.536Z,0
2023-02-03T02:16:53.291Z,0
2023-02-03T02:17:53.278Z,0
2023-02-03T02:18:53.239Z,0
2023-02-03T02:19:53.214Z,0
2023-02-03T02:20:53.262Z,0
2023-02-03T02:21:53.195Z,0
2023-02-03T02:22:53.151Z,0
2023-02-03T02:23:53.109Z,0
2023-02-03T02:24:53.060Z,0
2023-02-03T02:25:53.025Z,0
2023-02-03T02:26:53.046Z,0
2023-02-03T02:27:53.284Z,0
2023-02-03T02:28:52.945Z,0
2023-02-03T02:29:52.922Z,0
2023-02-03T02:30:53.432Z,0
2023-02-03T02:31:53.613Z,0
2023-02-03T02:32:52.869Z,0
2023-02-03T02:33:52.817Z,0
2023-02-03T02:34:52.775Z,0
2023-02-03T02:35:52.492Z,0
2023-02-03T02:36:52.788Z,0
2023-02-03T02:37:52.709Z,0
2023-02-03T02:38:52.702Z,0
2023-02-03T02:39:52.663Z,0
2023-02-03T02:40:52.588Z,0
2023-02-03T02:41:52.574Z,0
2023-02-03T02:42:52.563Z,0
2023-02-03T02:43:52.524Z,0
2023-02-03T02:44:52.516Z,0
2023-02-03T02:45:52.444Z,0
2023-02-03T02:46:52.428Z,0
2023-02-03T02:47:52.379Z,0
2023-02-03T02:48:52.374Z,0
2023-02-03T02:49:52.359Z,0
2023-02-03T02:50:52.286Z,0
2023-02-03T02:51:52.287Z,0
2023-02-03T02:52:52.314Z,0
2023-02-03T02:53:52.273Z,0
2023-02-03T02:54:52.190Z,0
2023-02-03T02:55:52.179Z,0
2023-02-03T02:56:52.117Z,0
2023-02-03T02:57:52.105Z,0
2023-02-03T02:58:52.081Z,0
2023-02-03T02:59:52.052Z,0
2023-02-03T03:00:51.997Z,0
2023-02-03T03:01:52.325Z,0
2023-02-03T03:02:51.922Z,0
2023-02-03T03:03:51.922Z,0
2023-02-03T03:04:52.156Z,0
2023-02-03T03:05:51.854Z,0
2023-02-03T03:06:51.813Z,0
2023-02-03T03:07:51.781Z,0
2023-02-03T03:08:51.814Z,0
2023-02-03T03:09:51.707Z,0
2023-02-03T03:10:51.813Z,0
2023-02-03T03:11:51.654Z,0
2023-02-03T03:12:51.625Z,0
2023-02-03T03:13:51.594Z,0
2023-02-03T03:14:51.574Z,0
2023-02-03T03:15:51.743Z,0
2023-02-03T03:16:51.492Z,0
2023-02-03T03:17:51.465Z,0
2023-02-03T03:18:51.476Z,0
2023-02-03T03:19:51.429Z,0
2023-02-03T03:20:51.394Z,0
2023-02-03T03:21:51.353Z,0
2023-02-03T03:22:51.320Z,0
2023-02-03T03:23:51.282Z,0
2023-02-03T03:24:51.328Z,0
2023-02-03T03:25:51.244Z,0
2023-02-03T03:26:51.217Z,0
2023-02-03T03:27:51.323Z,0
2023-02-03T03:28:51.144Z,0
2023-02-03T03:29:51.106Z,0
2023-02-03T03:30:51.498Z,0
2023-02-03T03:31:51.495Z,0
2023-02-03T03:32:51.007Z,0
2023-02-03T03:33:50.996Z,0
2023-02-03T03:34:50.972Z,0
2023-02-03T03:35:50.916Z,0
2023-02-03T03:36:50.889Z,0
2023-02-03T03:37:50.686Z,0
2023-02-03T03:38:50.822Z,0
2023-02-03T03:39:50.800Z,0
2023-02-03T03:40:50.836Z,0
2023-02-03T03:41:50.732Z,0
2023-02-03T03:42:50.760Z,0
2023-02-03T03:43:50.679Z,0
2023-02-03T03:44:50.743Z,0
2023-02-03T03:45:50.637Z,0
2023-02-03T03:46:50.805Z,0
2023-02-03T03:47:50.539Z,0
2023-02-03T03:48:50.515Z,0
2023-02-03T03:49:50.526Z,0
2023-02-03T03:50:50.464Z,0
2023-02-03T03:51:50.465Z,0
2023-02-03T03:52:50.391Z,0
2023-02-03T03:53:50.364Z,0
2023-02-03T03:54:50.344Z,0
2023-02-03T03:55:50.327Z,0
2023-02-03T03:56:50.345Z,0
2023-02-03T03:57:50.013Z,0
2023-02-03T03:58:50.237Z,0
2023-02-03T03:59:49.935Z,0
2023-02-03T04:00:50.140Z,0
2023-02-03T04:01:50.604Z,0
2023-02-03T04:02:50.835Z,0
2023-02-03T04:03:50.055Z,0
2023-02-03T04:04:50.031Z,0
2023-02-03T04:05:50.122Z,0
2023-02-03T04:06:49.719Z,0
2023-02-03T04:07:49.937Z,0
2023-02-03T04:08:49.928Z,0
2023-02-03T04:09:49.875Z,0
2023-02-03T04:10:49.831Z,0
2023-02-03T04:11:49.816Z,0
2023-02-03T04:12:49.841Z,0
2023-02-03T04:13:50.042Z,0
2023-02-03T04:14:49.732Z,0
2023-02-03T04:15:49.926Z,0
2023-02-03T04:16:49.651Z,0
2023-02-03T04:17:49.630Z,0
2023-02-03T04:18:49.601Z,0
2023-02-03T04:19:49.564Z,0
2023-02-03T04:20:49.548Z,0
2023-02-03T04:21:49.619Z,0
2023-02-03T04:22:49.478Z,0
2023-02-03T04:23:49.517Z,0
2023-02-03T04:24:49.394Z,0
2023-02-03T04:25:49.408Z,0
2023-02-03T04:26:49.335Z,0
2023-02-03T04:27:49.409Z,0
2023-02-03T04:28:49.361Z,0
2023-02-03T04:29:49.277Z,0
2023-02-03T04:30:49.450Z,0
2023-02-03T04:31:49.614Z,0
2023-02-03T04:32:49.175Z,0
2023-02-03T04:33:49.148Z,0
2023-02-03T04:34:49.119Z,0
2023-02-03T04:35:49.070Z,0
2023-02-03T04:36:49.066Z,0
2023-02-03T04:37:49.021Z,0
2023-02-03T04:38:49.123Z,0
2023-02-03T04:39:48.951Z,0
2023-02-03T04:40:48.922Z,0
2023-02-03T04:41:48.879Z,0
2023-02-03T04:42:48.840Z,0
2023-02-03T04:43:48.825Z,0
2023-02-03T04:44:48.855Z,0
2023-02-03T04:45:48.939Z,0
2023-02-03T04:46:48.737Z,0
2023-02-03T04:47:48.747Z,0
2023-02-03T04:48:48.695Z,0
2023-02-03T04:49:48.633Z,0
2023-02-03T04:50:48.619Z,0
2023-02-03T04:51:48.573Z,0
2023-02-03T04:52:48.548Z,0
2023-02-03T04:53:48.522Z,0
2023-02-03T04:54:48.519Z,0
2023-02-03T04:55:48.447Z,0
2023-02-03T04:56:48.421Z,0
2023-02-03T04:57:48.395Z,0
2023-02-03T04:58:48.388Z,0
2023-02-03T04:59:48.325Z,0
2023-02-03T05:00:48.535Z,0
2023-02-03T05:01:48.270Z,0
2023-02-03T05:02:48.272Z,0
2023-02-03T05:03:48.400Z,0
2023-02-03T05:04:48.191Z,0
2023-02-03T05:05:47.925Z,0
2023-02-03T05:06:48.105Z,0
2023-02-03T05:07:48.119Z,0
2023-02-03T05:08:48.086Z,0
2023-02-03T05:09:48.014Z,0
2023-02-03T05:10:48.014Z,0
2023-02-03T05:11:47.951Z,0
2023-02-03T05:12:47.941Z,0
2023-02-03T05:13:47.890Z,0
2023-02-03T05:14:47.875Z,0
2023-02-03T05:15:47.843Z,0
2023-02-03T05:16:48.891Z,0
2023-02-03T05:17:47.850Z,0
2023-02-03T05:18:47.810Z,0
2023-02-03T05:19:47.709Z,0
2023-02-03T05:20:47.717Z,0
2023-02-03T05:21:47.639Z,0
2023-02-03T05:22:47.628Z,0
2023-02-03T05:23:47.569Z,0
2023-02-03T05:24:47.552Z,0
2023-02-03T05:25:47.278Z,0
2023-02-03T05:26:47.523Z,0
2023-02-03T05:27:47.649Z,0
2023-02-03T05:28:47.444Z,0
2023-02-03T05:29:47.405Z,0
2023-02-03T05:30:47.610Z,0
2023-02-03T05:31:47.689Z,0
2023-02-03T05:32:47.400Z,0
2023-02-03T05:33:47.037Z,0
2023-02-03T05:34:49.484Z,0
2023-02-03T05:35:47.214Z,0
2023-02-03T05:36:47.187Z,0
2023-02-03T05:37:47.207Z,0
2023-02-03T05:38:47.196Z,0
2023-02-03T05:39:47.077Z,0
2023-02-03T05:40:47.072Z,0
2023-02-03T05:41:47.072Z,0
2023-02-03T05:42:47.001Z,0
2023-02-03T05:43:46.980Z,0
2023-02-03T05:44:46.940Z,0
2023-02-03T05:45:47.200Z,0
2023-02-03T05:46:46.873Z,0
2023-02-03T05:47:46.850Z,0
2023-02-03T05:48:46.882Z,0
2023-02-03T05:49:46.793Z,0
2023-02-03T05:50:46.769Z,0
2023-02-03T05:51:46.707Z,0
2023-02-03T05:52:46.685Z,0
2023-02-03T05:53:46.655Z,0
2023-02-03T05:54:46.650Z,0
2023-02-03T05:55:46.736Z,0
2023-02-03T05:56:46.569Z,0
2023-02-03T05:57:46.526Z,0
2023-02-03T05:58:46.511Z,0
2023-02-03T05:59:46.475Z,0
2023-02-03T06:00:46.439Z,0
2023-02-03T06:01:46.430Z,0
2023-02-03T06:02:46.405Z,0
2023-02-03T06:03:49.435Z,0
2023-02-03T06:04:46.576Z,0
2023-02-03T06:05:46.169Z,0
2023-02-03T06:06:46.331Z,0
2023-02-03T06:07:46.252Z,0
2023-02-03T06:08:46.191Z,0
2023-02-03T06:09:46.165Z,0
2023-02-03T06:10:46.125Z,0
2023-02-03T06:11:46.104Z,0
2023-02-03T06:12:46.097Z,0
2023-02-03T06:13:46.146Z,0
2023-02-03T06:14:46.032Z,0
2023-02-03T06:15:45.988Z,0
2023-02-03T06:16:46.196Z,0
2023-02-03T06:17:45.935Z,0
2023-02-03T06:18:45.879Z,0
2023-02-03T06:19:45.844Z,0
2023-02-03T06:20:45.935Z,0
2023-02-03T06:21:45.608Z,0
2023-02-03T06:22:45.788Z,0
2023-02-03T06:23:45.731Z,0
2023-02-03T06:24:45.691Z,0
2023-02-03T06:25:45.713Z,0
2023-02-03T06:26:45.632Z,0
2023-02-03T06:27:45.778Z,0
2023-02-03T06:28:45.593Z,0
2023-02-03T06:29:45.564Z,0
2023-02-03T06:30:46.377Z,0
2023-02-03T06:31:46.080Z,0
2023-02-03T06:32:45.485Z,0
2023-02-03T06:33:45.429Z,0
2023-02-03T06:34:45.404Z,0
2023-02-03T06:35:45.355Z,0
2023-02-03T06:36:45.403Z,0
2023-02-03T06:37:45.353Z,0
2023-02-03T06:38:45.306Z,0
2023-02-03T06:39:45.382Z,0
2023-02-03T06:40:45.201Z,4
2023-02-03T06:41:45.204Z,4
2023-02-03T06:42:45.139Z,4
2023-02-03T06:43:45.103Z,4
2023-02-03T06:44:45.081Z,4
2023-02-03T06:45:45.322Z,4
2023-02-03T06:46:45.093Z,4
2023-02-03T06:47:44.978Z,4
2023-02-03T06:48:44.962Z,4
2023-02-03T06:49:45.027Z,4
2023-02-03T06:50:46.952Z,8
2023-02-03T06:51:44.865Z,4
2023-02-03T06:52:44.925Z,8
2023-02-03T06:53:44.821Z,8
2023-02-03T06:54:44.836Z,8
2023-02-03T06:55:44.653Z,8
2023-02-03T06:56:44.701Z,8
2023-02-03T06:57:44.682Z,8
2023-02-03T06:58:44.659Z,12
2023-02-03T06:59:44.619Z,16
2023-02-03T07:00:44.624Z,16
2023-02-03T07:01:44.822Z,16
2023-02-03T07:02:44.733Z,12
2023-02-03T07:03:44.530Z,12
2023-02-03T07:04:44.495Z,16
2023-02-03T07:05:44.461Z,16
2023-02-03T07:06:44.403Z,20
2023-02-03T07:07:44.416Z,16
2023-02-03T07:08:44.416Z,24
2023-02-03T07:09:44.316Z,16
2023-02-03T07:10:44.332Z,20
2023-02-03T07:11:44.257Z,40
2023-02-03T07:12:44.214Z,40
2023-02-03T07:13:44.187Z,48
2023-02-03T07:14:44.302Z,48
2023-02-03T07:15:44.529Z,56
2023-02-03T07:16:44.103Z,56
2023-02-03T07:17:44.091Z,56
2023-02-03T07:18:55.046Z,52
2023-02-03T07:19:45.949Z,60
2023-02-03T07:20:44.005Z,60
2023-02-03T07:21:43.984Z,84
2023-02-03T07:22:43.906Z,100
2023-02-03T07:23:43.865Z,104
2023-02-03T07:24:43.930Z,120
2023-02-03T07:25:43.810Z,128
2023-02-03T07:26:43.822Z,124
2023-02-03T07:27:43.506Z,112
2023-02-03T07:28:43.481Z,104
2023-02-03T07:29:43.728Z,104
2023-02-03T07:30:43.802Z,112
2023-02-03T07:31:44.201Z,112
2023-02-03T07:32:43.591Z,132
2023-02-03T07:33:43.561Z,136
2023-02-03T07:34:43.526Z,156
2023-02-03T07:35:43.491Z,164
2023-02-03T07:36:43.459Z,164
2023-02-03T07:37:43.438Z,172
2023-02-03T07:38:43.445Z,180
2023-02-03T07:39:43.380Z,180
2023-02-03T07:40:43.410Z,184
2023-02-03T07:41:43.362Z,192
2023-02-03T07:42:43.318Z,208
2023-02-03T07:43:43.288Z,204
2023-02-03T07:44:43.215Z,224
2023-02-03T07:45:43.185Z,228
2023-02-03T07:46:43.442Z,212
2023-02-03T07:47:43.129Z,220
2023-02-03T07:48:43.115Z,208
2023-02-03T07:49:43.068Z,180
2023-02-03T07:50:43.029Z,192
2023-02-03T07:51:42.813Z,188
2023-02-03T07:52:42.991Z,200
2023-02-03T07:53:43.029Z,224
2023-02-03T07:54:42.911Z,232
2023-02-03T07:55:42.906Z,264
2023-02-03T07:56:43.035Z,292
2023-02-03T07:57:42.828Z,336
2023-02-03T07:58:42.849Z,360
2023-02-03T07:59:42.773Z,372
2023-02-03T08:00:42.757Z,352
2023-02-03T08:01:43.047Z,360
2023-02-03T08:02:42.661Z,360
2023-02-03T08:03:42.628Z,392
2023-02-03T08:04:43.003Z,404
2023-02-03T08:05:42.580Z,400
2023-02-03T08:06:42.536Z,384
2023-02-03T08:07:42.534Z,384
2023-02-03T08:08:42.246Z,392
2023-02-03T08:09:42.192Z,372
2023-02-03T08:10:42.206Z,392
2023-02-03T08:11:42.383Z,388
2023-02-03T08:12:44.085Z,404
2023-02-03T08:13:42.329Z,452
2023-02-03T08:14:42.314Z,456
2023-02-03T08:15:42.251Z,504
2023-02-03T08:16:42.407Z,508
2023-02-03T08:17:42.226Z,472
2023-02-03T08:18:42.167Z,472
2023-02-03T08:19:42.136Z,484
2023-02-03T08:20:42.149Z,488
2023-02-03T08:21:42.115Z,492
2023-02-03T08:22:42.054Z,548
2023-02-03T08:23:41.761Z,556
2023-02-03T08:24:41.981Z,560
2023-02-03T08:25:41.945Z,604
2023-02-03T08:26:41.908Z,616
2023-02-03T08:27:42.054Z,612
2023-02-03T08:28:41.929Z,608
2023-02-03T08:29:41.811Z,636
2023-02-03T08:30:41.825Z,640
2023-02-03T08:31:42.452Z,696
2023-02-03T08:32:41.742Z,676
2023-02-03T08:33:41.698Z,684
2023-02-03T08:34:41.661Z,712
2023-02-03T08:35:41.638Z,744
2023-02-03T08:36:41.357Z,716
2023-02-03T08:37:41.592Z,704
2023-02-03T08:38:41.559Z,744
2023-02-03T08:39:41.287Z,756
2023-02-03T08:40:41.482Z,800
2023-02-03T08:41:41.469Z,844
2023-02-03T08:42:41.418Z,848
2023-02-03T08:43:41.463Z,896
2023-02-03T08:44:41.433Z,920
2023-02-03T08:45:41.256Z,852
2023-02-03T08:46:41.344Z,856
2023-02-03T08:47:41.292Z,800
2023-02-03T08:48:41.235Z,796
2023-02-03T08:49:40.989Z,784
2023-02-03T08:50:41.236Z,812
2023-02-03T08:51:41.140Z,764
2023-02-03T08:52:41.119Z,736
2023-02-03T08:53:41.080Z,812
2023-02-03T08:54:41.425Z,868
2023-02-03T08:55:41.637Z,944
2023-02-03T08:56:40.962Z,1020
2023-02-03T08:57:41.562Z,988
2023-02-03T08:58:41.619Z,952
2023-02-03T08:59:40.954Z,928
2023-02-03T09:00:40.734Z,880
2023-02-03T09:01:40.851Z,928
2023-02-03T09:02:40.829Z,980
2023-02-03T09:03:40.812Z,1008
2023-02-03T09:04:40.808Z,1012
2023-02-03T09:05:40.763Z,1088
2023-02-03T09:06:40.698Z,1164
2023-02-03T09:07:40.677Z,1048
2023-02-03T09:08:40.624Z,1064
2023-02-03T09:09:40.590Z,1084
2023-02-03T09:10:40.323Z,1104
2023-02-03T09:11:40.538Z,1172
2023-02-03T09:12:40.051Z,1220
2023-02-03T09:13:40.469Z,1236
2023-02-03T09:14:40.217Z,1244
2023-02-03T09:15:40.173Z,1316
2023-02-03T09:16:40.825Z,652
2023-02-03T09:17:40.362Z,516
2023-02-03T09:18:40.344Z,1284
2023-02-03T09:19:42.789Z,1336
2023-02-03T09:20:41.013Z,1320
2023-02-03T09:21:53.351Z,1428
2023-02-03T09:22:40.648Z,1512
2023-02-03T09:23:40.179Z,1272
2023-02-03T09:24:40.144Z,1328
2023-02-03T09:25:39.870Z,1284
2023-02-03T09:26:39.874Z,1304
2023-02-03T09:27:40.213Z,1336
2023-02-03T09:28:40.009Z,1352
2023-02-03T09:29:40.054Z,1384
2023-02-03T09:30:40.345Z,1640
2023-02-03T09:31:39.979Z,1476
2023-02-03T09:32:40.016Z,1428
2023-02-03T09:33:39.880Z,1388
2023-02-03T09:34:39.901Z,1436
2023-02-03T09:35:39.840Z,1444
2023-02-03T09:36:41.319Z,1588
2023-02-03T09:37:39.767Z,1568
2023-02-03T09:38:39.701Z,1532
2023-02-03T09:39:39.880Z,1700
2023-02-03T09:40:39.768Z,1684
2023-02-03T09:41:39.388Z,1748
2023-02-03T09:42:39.665Z,1652
2023-02-03T09:43:39.607Z,1588
2023-02-03T09:44:39.528Z,1596
2023-02-03T09:45:39.711Z,1924
2023-02-03T09:46:39.214Z,900
2023-02-03T09:47:39.466Z,868
2023-02-03T09:48:39.486Z,2152
2023-02-03T09:49:39.382Z,2092
2023-02-03T09:50:39.380Z,1888
2023-02-03T09:51:39.308Z,1816
2023-02-03T09:52:39.273Z,1780
2023-02-03T09:53:39.257Z,1868
2023-02-03T09:54:39.222Z,1948
2023-02-03T09:55:39.216Z,2148
2023-02-03T09:56:39.269Z,2144
2023-02-03T09:57:39.119Z,2208
2023-02-03T09:58:39.206Z,1928
2023-02-03T09:59:39.315Z,2036
2023-02-03T10:00:39.073Z,1940
2023-02-03T10:01:39.291Z,1876
2023-02-03T10:02:39.238Z,2192
2023-02-03T10:03:38.954Z,2180
2023-02-03T10:04:39.012Z,1988
2023-02-03T10:05:38.896Z,2220
2023-02-03T10:06:38.930Z,2024
2023-02-03T10:07:38.831Z,1552
2023-02-03T10:08:38.785Z,1308
2023-02-03T10:09:38.767Z,1296
2023-02-03T10:10:38.747Z,1404
2023-02-03T10:11:38.715Z,1476
2023-02-03T10:12:38.683Z,1520
2023-02-03T10:13:40.486Z,1424
2023-02-03T10:14:38.620Z,1380
2023-02-03T10:15:38.361Z,1556
2023-02-03T10:16:38.923Z,1916
2023-02-03T10:17:38.559Z,1676
2023-02-03T10:18:38.495Z,1492
2023-02-03T10:19:38.843Z,1356
2023-02-03T10:20:38.666Z,1404
2023-02-03T10:21:38.412Z,1476
2023-02-03T10:22:38.410Z,1520
2023-02-03T10:23:38.345Z,1668
2023-02-03T10:24:38.309Z,1760
2023-02-03T10:25:38.282Z,1832
2023-02-03T10:26:38.254Z,2052
2023-02-03T10:27:38.311Z,2240
2023-02-03T10:28:38.223Z,2176
2023-02-03T10:29:38.146Z,1888
2023-02-03T10:30:39.605Z,1576
2023-02-03T10:31:38.825Z,1524
2023-02-03T10:32:38.081Z,1408
2023-02-03T10:33:38.132Z,1488
2023-02-03T10:34:38.033Z,1660
2023-02-03T10:35:37.798Z,1752
2023-02-03T10:36:38.189Z,1800
2023-02-03T10:37:37.921Z,1736
2023-02-03T10:38:37.908Z,1720
2023-02-03T10:39:37.886Z,1720
2023-02-03T10:40:38.374Z,1784
2023-02-03T10:41:37.817Z,1912
2023-02-03T10:42:37.758Z,1988
2023-02-03T10:43:37.731Z,1956
2023-02-03T10:44:37.440Z,2304
2023-02-03T10:45:37.685Z,2080
2023-02-03T10:46:38.073Z,2116
2023-02-03T10:47:37.755Z,2148
2023-02-03T10:48:37.357Z,2672
2023-02-03T10:49:37.576Z,2464
2023-02-03T10:50:38.122Z,2320
2023-02-03T10:51:37.501Z,2344
2023-02-03T10:52:37.571Z,2444
2023-02-03T10:53:37.522Z,2608
2023-02-03T10:54:37.424Z,2232
2023-02-03T10:55:37.388Z,2104
2023-02-03T10:56:37.348Z,2108
2023-02-03T10:57:37.379Z,2156
2023-02-03T10:58:37.338Z,1956
2023-02-03T10:59:37.281Z,2240
2023-02-03T11:00:37.756Z,2200
2023-02-03T11:01:37.534Z,2060
2023-02-03T11:02:37.521Z,2116
2023-02-03T11:03:37.137Z,2100
2023-02-03T11:04:37.166Z,2392
2023-02-03T11:05:36.952Z,2244
2023-02-03T11:06:37.163Z,2320
2023-02-03T11:07:36.762Z,2168
2023-02-03T11:08:37.054Z,2000
2023-02-03T11:09:36.962Z,2072
2023-02-03T11:10:37.411Z,2064
2023-02-03T11:11:36.917Z,2120
2023-02-03T11:12:36.881Z,1924
2023-02-03T11:13:36.820Z,1608
2023-02-03T11:14:36.811Z,1628
2023-02-03T11:15:37.074Z,1652
2023-02-03T11:16:44.402Z,2152
2023-02-03T11:17:36.600Z,2672
2023-02-03T11:18:36.670Z,2864
2023-02-03T11:19:36.650Z,2964
2023-02-03T11:20:36.892Z,2004
2023-02-03T11:21:36.624Z,1680
2023-02-03T11:22:36.598Z,1772
2023-02-03T11:23:36.631Z,1688
2023-02-03T11:24:36.587Z,1620
2023-02-03T11:25:36.466Z,1732
2023-02-03T11:26:36.467Z,1688
2023-02-03T11:27:36.460Z,1952
2023-02-03T11:28:36.169Z,2024
2023-02-03T11:29:36.346Z,2068
2023-02-03T11:30:36.613Z,2524
2023-02-03T11:31:36.916Z,2364
2023-02-03T11:32:36.247Z,2552
2023-02-03T11:33:36.246Z,2540
2023-02-03T11:34:36.211Z,2368
2023-02-03T11:35:36.191Z,2556
2023-02-03T11:36:36.212Z,2348
2023-02-03T11:37:36.132Z,2080
2023-02-03T11:38:35.825Z,2004
2023-02-03T11:39:36.066Z,2852
2023-02-03T11:40:36.831Z,3004
2023-02-03T11:41:35.993Z,3524
2023-02-03T11:42:35.980Z,3360
2023-02-03T11:43:35.697Z,3300
2023-02-03T11:44:35.464Z,2864
2023-02-03T11:45:35.874Z,2128
2023-02-03T11:46:36.247Z,2104
2023-02-03T11:47:35.856Z,2096
2023-02-03T11:48:35.826Z,1752
2023-02-03T11:49:35.740Z,1960
2023-02-03T11:50:36.272Z,2352
2023-02-03T11:51:35.703Z,1864
2023-02-03T11:52:35.669Z,1876
2023-02-03T11:53:42.278Z,1364
2023-02-03T11:54:35.374Z,1452
2023-02-03T11:55:35.578Z,1560
2023-02-03T11:56:35.671Z,1764
2023-02-03T11:57:35.627Z,2208
2023-02-03T11:58:35.487Z,2316
2023-02-03T11:59:35.433Z,1980
2023-02-03T12:00:35.768Z,2912
2023-02-03T12:01:35.385Z,2544
2023-02-03T12:02:35.536Z,2832
2023-02-03T12:03:35.325Z,2868
2023-02-03T12:04:35.328Z,2152
2023-02-03T12:05:35.250Z,1868
2023-02-03T12:06:35.119Z,1788
2023-02-03T12:07:35.248Z,1752
2023-02-03T12:08:35.188Z,1552
2023-02-03T12:09:34.956Z,1696
2023-02-03T12:10:35.899Z,1956
2023-02-03T12:11:35.062Z,1672
2023-02-03T12:12:35.151Z,1848
2023-02-03T12:13:34.524Z,1648
2023-02-03T12:14:34.992Z,1604
2023-02-03T12:15:34.712Z,1260
2023-02-03T12:16:35.111Z,1180
2023-02-03T12:17:34.933Z,1420
2023-02-03T12:18:34.860Z,1888
2023-02-03T12:19:34.834Z,1564
2023-02-03T12:20:35.744Z,2408
2023-02-03T12:21:34.757Z,2412
2023-02-03T12:22:34.752Z,2980
2023-02-03T12:23:34.704Z,3804
2023-02-03T12:24:34.687Z,3700
2023-02-03T12:25:34.667Z,3380
2023-02-03T12:26:34.406Z,2652
2023-02-03T12:27:34.605Z,2204
2023-02-03T12:28:40.840Z,1944
2023-02-03T12:29:37.011Z,2156
2023-02-03T12:30:35.832Z,2204
2023-02-03T12:31:34.984Z,3056
2023-02-03T12:32:34.438Z,2440
2023-02-03T12:33:34.169Z,3352
2023-02-03T12:34:34.382Z,2428
2023-02-03T12:35:36.622Z,2816
2023-02-03T12:36:34.333Z,2932
2023-02-03T12:37:34.304Z,2988
2023-02-03T12:38:34.254Z,2740
2023-02-03T12:39:34.230Z,3460
2023-02-03T12:40:35.307Z,4304
2023-02-03T12:41:34.183Z,5424
2023-02-03T12:42:34.143Z,4656
2023-02-03T12:43:34.114Z,4700
2023-02-03T12:44:34.300Z,4740
2023-02-03T12:45:34.267Z,3872
2023-02-03T12:46:34.051Z,3040
2023-02-03T12:47:33.742Z,3144
2023-02-03T12:48:33.768Z,2780
2023-02-03T12:49:33.698Z,4128
2023-02-03T12:50:34.806Z,4768
2023-02-03T12:51:33.861Z,4572
2023-02-03T12:52:33.919Z,6200
2023-02-03T12:53:36.260Z,6792
2023-02-03T12:54:33.796Z,8460
2023-02-03T12:55:33.764Z,6656
2023-02-03T12:56:33.733Z,5928
2023-02-03T12:57:33.690Z,5656
2023-02-03T12:58:35.950Z,3788
2023-02-03T12:59:33.400Z,4732
2023-02-03T13:00:34.674Z,3920
2023-02-03T13:01:33.810Z,3672
2023-02-03T13:02:33.897Z,3736
2023-02-03T13:03:33.501Z,3788
2023-02-03T13:04:33.481Z,2984
2023-02-03T13:05:33.545Z,2664
2023-02-03T13:06:33.480Z,2192
2023-02-03T13:07:33.385Z,2476
2023-02-03T13:08:33.356Z,2640
2023-02-03T13:09:33.163Z,2376
2023-02-03T13:10:34.175Z,3140
2023-02-03T13:11:33.296Z,2396
2023-02-03T13:12:33.252Z,2160
2023-02-03T13:13:33.219Z,2308
2023-02-03T13:14:33.216Z,2192
2023-02-03T13:15:33.148Z,2132
2023-02-03T13:16:33.422Z,1460
2023-02-03T13:17:33.088Z,1768
2023-02-03T13:18:33.073Z,1644
2023-02-03T13:19:32.789Z,1600
2023-02-03T13:20:34.000Z,1472
2023-02-03T13:21:32.970Z,1568
2023-02-03T13:22:32.945Z,1472
2023-02-03T13:23:32.902Z,1392
2023-02-03T13:24:32.921Z,1140
2023-02-03T13:25:32.655Z,872
2023-02-03T13:26:32.589Z,824
2023-02-03T13:27:32.803Z,676
2023-02-03T13:28:32.773Z,564
2023-02-03T13:29:32.745Z,696
2023-02-03T13:30:33.852Z,1004
2023-02-03T13:31:33.183Z,1184
2023-02-03T13:32:32.719Z,1144
2023-02-03T13:33:32.394Z,1256
2023-02-03T13:34:32.607Z,1188
2023-02-03T13:35:41.376Z,1084
2023-02-03T13:36:32.537Z,952
2023-02-03T13:37:32.513Z,1288
2023-02-03T13:38:32.499Z,1276
2023-02-03T13:39:32.473Z,1288
2023-02-03T13:40:33.440Z,1432
2023-02-03T13:41:32.361Z,1592
2023-02-03T13:42:32.420Z,1568
2023-02-03T13:43:44.810Z,1440
2023-02-03T13:44:32.277Z,1356
2023-02-03T13:45:32.411Z,1288
2023-02-03T13:46:32.444Z,1348
2023-02-03T13:47:32.167Z,1376
2023-02-03T13:48:32.237Z,1268
2023-02-03T13:49:32.140Z,1216
2023-02-03T13:50:33.122Z,1256
2023-02-03T13:51:32.049Z,1220
2023-02-03T13:52:32.348Z,1216
2023-02-03T13:53:32.005Z,1292
2023-02-03T13:54:31.971Z,1456
2023-02-03T13:55:33.022Z,1504
2023-02-03T13:56:31.935Z,1452
2023-02-03T13:57:31.860Z,1396
2023-02-03T13:58:31.851Z,1304
2023-02-03T13:59:31.881Z,1248
2023-02-03T14:00:31.791Z,1260
2023-02-03T14:01:31.940Z,1288
2023-02-03T14:02:31.727Z,1336
2023-02-03T14:03:32.024Z,1500
2023-02-03T14:04:32.044Z,1692
2023-02-03T14:05:32.519Z,1828